Billund Airport

EKBI · 南丹麦大区, 丹麦

罗盘
风向 的 风向 的 风向 到 风向 170° Billund Airport 9/27
风向 到 风: 13 kt, 阵阵 24 kt, 4 beaufort

2 kt

13 kt
改变
0 ft 1.000 2.000 3.000 4.000 5.000
Cloud Cloud
FEW 1.500
Cloud Cloud Cloud Cloud Cloud Cloud Cloud Cloud
OVC 1.800
METAR EKBI 231620Z 17013G24KT 140V210 7000 -SHRA FEW015CB OVC018 05/03 Q0988

METAR Billund Airport - EKBI/BLL

Billund Airport是,丹麦中的大型机场。 该机场位于纬度55,74045和经度9,15711。 该机场有一条跑道: 9/27. 本场的ICAO机场代码为EKBI。 该机场的IATA代码为BLL。 机场在Kobenhavn FIR中。

该航空气象观测是针对Billund Airport在2024年2月23日 17:20, 当地时间进行的。

机场观察

风向为170°,速度为13 kt。 已测得24 kt的阵风。 风向在140°和210°之间变化。

可见度为7 km。

有几云 积雨云在1.500 ft的高度 和 乌云密布在1.800 ft的高度。 破损或更高的上限为1.800 ft。

当前天气为光 阵雨 雨。 温度为5 °C,阵风为-1 °C。 露点为3 °C,相对湿度为87%。 海平面上的气压为988 hPa (QNH)。

白天

今天,太阳从07:29升起,在17:43降落。 这适用于Billund Airport,世界夏令时可能有所不同。 当地时间与世界标准时间之间的时差为+1 小时。 当前,没有夏令时有效。

公司介绍

在这个机场,你可以找到飞行学校。 这个机场上的公司有JoinJet FBO 和 Billund Air Center。

体会

到Vliegles.nl去找飞行课程,跳伞和其他飞行体验。 浏览页面,了解Billund Airport附近所有可用的活动。 你也可以使用搜索功能来寻找你所在地附近的特定飞行课程、跳伞或其他飞行体验。

跑道

Id 标题 侧风 逆风 侧风 %
9/27 087°-267° 13-24 kt 2-3 kt 99 %

逆风成分最大的方向会被突出显示,并用于横风计算。 这并不一定意味着这个方向在使用。

乌云

1.500 ft FEW 几云 积雨云
1.800 ft OVC 乌云密布

温度 & 天气

天气 光 阵雨 雨
温度 5 °C
露点 3 °C
相对湿度 87%
风寒 -1 °C
Kp-index 0 (0-9)

白天

日出
07:29
中午
12:36
日落
17:43 ()

小工具

你想在你的网站上有一个关于Billund Airport的当前航空天气(METAR)的小部件吗?

显示HTML代码
?>